Aérodrome :
LOGIN :

S'inscrire | Disclaimer

   EN    FR    IT 

 










Légende :    VFR   VFR Marginal   IFR   IFR Intensif   IFR Très Intensif
Visi : 
Plafond : 
>= 8 km
>= 3000ft
5 à 8 km
1000 à 3000 ft
1500m à 5 km
500 à 1000 ft
800 à 1500m
200 à 500 ft
< 800m
< 200 ft
Symboles :   Orages  Brouillard  Fortes neiges  Fortes précipitations  Vent > 20 kt
SIGMETs :   Divers  Orages  Givrage  Turbulence  Onde Orograph.  Cendres Volcan.







- Altitude de l'aérodrome : 187 ft


LPMR - Monte Real Air Base

DERNIER METAR :
  • 280900Z 31003KT 9999 FEW010 SCT026 18/16 Q1015

METARs EXPIRÉS :
  • 280800Z 33012G23KT 300V360 9999 SCT006 BKN015 BKN026 17/15 Q1015

TAF TAF LPMR
Valide du 28 à 06h jusqu'au 29 à 06h UTC


280505Z 2806/2906 24008KT 9999 SCT013 BKN025
TEMPO 2806/2809 4000 -RADZ BR SCT004 BKN009
BECMG 2809/2811 32015KT FEW020 SCT030
PROB40
TEMPO 2809/2813 8000 -SHRA BKN020
TEMPO 2811/2820 34017G27KT
BECMG 2820/2822 33010KT SCT020
Pas de NOTAMs connus pour ce terrain.



MET'MAP, la Météo Aéronautique d'un coup d'oeil ! - Copyright ORBIFLY Décembre 2007 - Disclaimer

ORBIFLY MET'MAP TEAM :

Programmation & Développement : Alexandra Zaïnal
Conception & Développement : Baudouin d'Aumeries
Co-Programmation & Développement : Marc-Olivier Méhu
Soutien technique & logistique : Manuel Goepfert

Contact : metmap@orbifly.com




SOURCES & CREDITS :

   NOAA